DLH2UE LPPD-LPLA
Flight info
| Callsign | DLH2UE |
|---|---|
| Flight time | 0h 24m |
| Altitude | 13000 |
| Route | MIPRU H113 LM |
| Aircraft | A320/M-SDE3FGHIRWY/LB1 |
Departure
| Time | 2026-05-08 17:05 |
|---|---|
| Airport | João Paulo II Airport (LPPD) |
Arrival
| Time | 2026-05-08 17:29 |
|---|---|
| Airport | Lajes Airport (LPLA) |
| Time | Latitude | Longitude | Altitude | Speed | Heading |
|---|---|---|---|---|---|
| 2026-05-08 16:33 | 37.74861 | -25.71051 | 266 ft | 0 kts | 22° |
| 2026-05-08 16:45 | 37.74857 | -25.71053 | 266 ft | 2 kts | 22° |
| 2026-05-08 16:45 | 37.74842 | -25.71061 | 266 ft | 2 kts | 22° |
| 2026-05-08 16:46 | 37.74826 | -25.71069 | 266 ft | 2 kts | 22° |
| 2026-05-08 16:46 | 37.74810 | -25.71076 | 266 ft | 2 kts | 46° |
| 2026-05-08 16:46 | 37.74798 | -25.71092 | 266 ft | 2 kts | 67° |
| 2026-05-08 16:46 | 37.74795 | -25.71104 | 266 ft | 0 kts | 107° |
| 2026-05-08 16:47 | 37.74792 | -25.71091 | 266 ft | 3 kts | 107° |
| 2026-05-08 16:47 | 37.74781 | -25.71052 | 265 ft | 6 kts | 111° |
| 2026-05-08 16:48 | 37.74762 | -25.70991 | 264 ft | 9 kts | 111° |
| 2026-05-08 16:48 | 37.74736 | -25.70912 | 261 ft | 11 kts | 112° |
| 2026-05-08 16:48 | 37.74706 | -25.70816 | 257 ft | 13 kts | 111° |
| 2026-05-08 16:48 | 37.74671 | -25.70705 | 254 ft | 15 kts | 112° |
| 2026-05-08 16:49 | 37.74630 | -25.70576 | 249 ft | 17 kts | 111° |
| 2026-05-08 16:49 | 37.74568 | -25.70441 | 244 ft | 19 kts | 134° |
| 2026-05-08 16:49 | 37.74488 | -25.70358 | 241 ft | 0 kts | 142° |
| 2026-05-08 17:02 | 37.74477 | -25.70348 | 241 ft | 6 kts | 142° |
| 2026-05-08 17:02 | 37.74408 | -25.70277 | 238 ft | 20 kts | 139° |
| 2026-05-08 17:02 | 37.74301 | -25.70089 | 230 ft | 33 kts | 115° |
| 2026-05-08 17:02 | 37.74200 | -25.69765 | 220 ft | 46 kts | 111° |
| 2026-05-08 17:03 | 37.74070 | -25.69351 | 208 ft | 55 kts | 111° |
| 2026-05-08 17:03 | 37.73920 | -25.68875 | 196 ft | 61 kts | 112° |
| 2026-05-08 17:03 | 37.73823 | -25.68588 | 176 ft | 15 kts | 128° |
| 2026-05-08 17:03 | 37.73744 | -25.68513 | 173 ft | 13 kts | 112° |
| 2026-05-08 17:04 | 37.73791 | -25.68475 | 172 ft | 10 kts | 304° |
| 2026-05-08 17:04 | 37.73814 | -25.68546 | 174 ft | 0 kts | 291° |
| 2026-05-08 17:04 | 37.73815 | -25.68549 | 175 ft | 3 kts | 291° |
| 2026-05-08 17:04 | 37.73911 | -25.68855 | 193 ft | 75 kts | 291° |
| 2026-05-08 17:05 | 37.74189 | -25.69715 | 233 ft | 132 kts | 296° |
| 2026-05-08 17:05 | 37.74522 | -25.70850 | 744 ft | 146 kts | 289° |
| 2026-05-08 17:05 | 37.74669 | -25.72176 | 1454 ft | 156 kts | 289° |
| 2026-05-08 17:05 | 37.74841 | -25.73552 | 2086 ft | 164 kts | 293° |
| 2026-05-08 17:06 | 37.75113 | -25.75043 | 2531 ft | 183 kts | 289° |
| 2026-05-08 17:06 | 37.75343 | -25.76685 | 3080 ft | 196 kts | 287° |
| 2026-05-08 17:06 | 37.75550 | -25.78451 | 3663 ft | 211 kts | 287° |
| 2026-05-08 17:06 | 37.75759 | -25.80378 | 4265 ft | 231 kts | 284° |
| 2026-05-08 17:07 | 37.75971 | -25.82473 | 4894 ft | 247 kts | 283° |
| 2026-05-08 17:07 | 37.76174 | -25.84657 | 5605 ft | 252 kts | 283° |
| 2026-05-08 17:07 | 37.76365 | -25.86871 | 6383 ft | 255 kts | 282° |
| 2026-05-08 17:07 | 37.76557 | -25.89121 | 7132 ft | 259 kts | 282° |
| 2026-05-08 17:08 | 37.76745 | -25.91353 | 7959 ft | 259 kts | 282° |
| 2026-05-08 17:08 | 37.76937 | -25.93619 | 8911 ft | 259 kts | 281° |
| 2026-05-08 17:08 | 37.77225 | -25.95835 | 10304 ft | 253 kts | 292° |
| 2026-05-08 17:08 | 37.77989 | -25.97786 | 11660 ft | 247 kts | 308° |
| 2026-05-08 17:09 | 37.79226 | -25.99381 | 12479 ft | 268 kts | 324° |
| 2026-05-08 17:09 | 37.80997 | -26.00418 | 12832 ft | 295 kts | 343° |
| 2026-05-08 17:09 | 37.83079 | -26.00918 | 12989 ft | 316 kts | 347° |
| 2026-05-08 17:09 | 37.85349 | -26.01333 | 13025 ft | 343 kts | 349° |
| 2026-05-08 17:10 | 37.87801 | -26.01721 | 13024 ft | 367 kts | 349° |
| 2026-05-08 17:10 | 37.90384 | -26.02165 | 13030 ft | 377 kts | 349° |
| 2026-05-08 17:10 | 37.92985 | -26.02679 | 13031 ft | 379 kts | 348° |
| 2026-05-08 17:10 | 37.95585 | -26.03257 | 13033 ft | 379 kts | 347° |
| 2026-05-08 17:11 | 37.98174 | -26.03879 | 13037 ft | 379 kts | 346° |
| 2026-05-08 17:11 | 38.00757 | -26.04527 | 13032 ft | 379 kts | 346° |
| 2026-05-08 17:11 | 38.03342 | -26.05185 | 13032 ft | 379 kts | 346° |
| 2026-05-08 17:11 | 38.05819 | -26.06244 | 13031 ft | 375 kts | 331° |
| 2026-05-08 17:12 | 38.07904 | -26.08206 | 13033 ft | 375 kts | 315° |
| 2026-05-08 17:12 | 38.09645 | -26.10675 | 13034 ft | 375 kts | 312° |
| 2026-05-08 17:12 | 38.11364 | -26.13172 | 13046 ft | 375 kts | 312° |
| 2026-05-08 17:12 | 38.13081 | -26.15674 | 13048 ft | 376 kts | 312° |
| 2026-05-08 17:13 | 38.14778 | -26.18148 | 13027 ft | 377 kts | 312° |
| 2026-05-08 17:13 | 38.16504 | -26.20656 | 13019 ft | 378 kts | 312° |
| 2026-05-08 17:13 | 38.18240 | -26.23174 | 13019 ft | 379 kts | 312° |
| 2026-05-08 17:13 | 38.19976 | -26.25695 | 13017 ft | 379 kts | 312° |
| 2026-05-08 17:14 | 38.21715 | -26.28223 | 12995 ft | 380 kts | 312° |
| 2026-05-08 17:14 | 38.23454 | -26.30758 | 13001 ft | 378 kts | 312° |
| 2026-05-08 17:14 | 38.25134 | -26.33213 | 12922 ft | 358 kts | 312° |
| 2026-05-08 17:14 | 38.26728 | -26.35542 | 12813 ft | 340 kts | 312° |
| 2026-05-08 17:15 | 38.28124 | -26.37851 | 12671 ft | 316 kts | 307° |
| 2026-05-08 17:15 | 38.29318 | -26.40043 | 12509 ft | 289 kts | 307° |
| 2026-05-08 17:15 | 38.30443 | -26.42097 | 11994 ft | 278 kts | 307° |
| 2026-05-08 17:15 | 38.31542 | -26.44097 | 11305 ft | 274 kts | 307° |
| 2026-05-08 17:16 | 38.32630 | -26.46076 | 10630 ft | 273 kts | 307° |
| 2026-05-08 17:16 | 38.33716 | -26.48051 | 10098 ft | 271 kts | 307° |
| 2026-05-08 17:16 | 38.34782 | -26.49993 | 9828 ft | 261 kts | 307° |
| 2026-05-08 17:16 | 38.35807 | -26.51867 | 9465 ft | 256 kts | 307° |
| 2026-05-08 17:17 | 38.36807 | -26.53695 | 9023 ft | 254 kts | 308° |
| 2026-05-08 17:17 | 38.37818 | -26.55543 | 8628 ft | 253 kts | 308° |
| 2026-05-08 17:17 | 38.38822 | -26.57381 | 8203 ft | 252 kts | 308° |
| 2026-05-08 17:17 | 38.39818 | -26.59210 | 7874 ft | 248 kts | 308° |
| 2026-05-08 17:18 | 38.40805 | -26.61021 | 7439 ft | 249 kts | 308° |
| 2026-05-08 17:18 | 38.41797 | -26.62840 | 7012 ft | 250 kts | 308° |
| 2026-05-08 17:18 | 38.42786 | -26.64654 | 6611 ft | 249 kts | 308° |
| 2026-05-08 17:18 | 38.43773 | -26.66461 | 6194 ft | 248 kts | 308° |
| 2026-05-08 17:19 | 38.44756 | -26.68258 | 5761 ft | 247 kts | 308° |
| 2026-05-08 17:19 | 38.45735 | -26.70051 | 5342 ft | 245 kts | 308° |
| 2026-05-08 17:19 | 38.46702 | -26.71828 | 5036 ft | 243 kts | 308° |
| 2026-05-08 17:19 | 38.47668 | -26.73600 | 4809 ft | 244 kts | 308° |
| 2026-05-08 17:20 | 38.48633 | -26.75377 | 4582 ft | 243 kts | 308° |
| 2026-05-08 17:20 | 38.49594 | -26.77151 | 4340 ft | 243 kts | 308° |
| 2026-05-08 17:20 | 38.50552 | -26.78920 | 4115 ft | 242 kts | 308° |
| 2026-05-08 17:20 | 38.51494 | -26.80660 | 3888 ft | 241 kts | 308° |
| 2026-05-08 17:21 | 38.52447 | -26.82415 | 3649 ft | 240 kts | 308° |
| 2026-05-08 17:21 | 38.53410 | -26.84117 | 3444 ft | 229 kts | 316° |
| 2026-05-08 17:21 | 38.54516 | -26.85472 | 3368 ft | 213 kts | 320° |
| 2026-05-08 17:21 | 38.55571 | -26.86746 | 3303 ft | 206 kts | 320° |
| 2026-05-08 17:22 | 38.56609 | -26.88002 | 3214 ft | 206 kts | 320° |
| 2026-05-08 17:22 | 38.57632 | -26.89283 | 3119 ft | 207 kts | 315° |
| 2026-05-08 17:22 | 38.58588 | -26.90612 | 3028 ft | 197 kts | 320° |
| 2026-05-08 17:22 | 38.59571 | -26.91741 | 3005 ft | 183 kts | 323° |
| 2026-05-08 17:23 | 38.60513 | -26.92744 | 3004 ft | 170 kts | 324° |
| 2026-05-08 17:23 | 38.61378 | -26.93651 | 3034 ft | 152 kts | 325° |
| 2026-05-08 17:23 | 38.62172 | -26.94477 | 3037 ft | 142 kts | 325° |
| 2026-05-08 17:23 | 38.62875 | -26.95210 | 3014 ft | 126 kts | 325° |
| 2026-05-08 17:24 | 38.63536 | -26.95897 | 3012 ft | 120 kts | 325° |
| 2026-05-08 17:24 | 38.64179 | -26.96564 | 3004 ft | 118 kts | 325° |
| 2026-05-08 17:24 | 38.64817 | -26.97227 | 2947 ft | 118 kts | 325° |
| 2026-05-08 17:24 | 38.65450 | -26.97886 | 2824 ft | 118 kts | 325° |
| 2026-05-08 17:25 | 38.66085 | -26.98546 | 2688 ft | 118 kts | 326° |
| 2026-05-08 17:25 | 38.66720 | -26.99207 | 2533 ft | 118 kts | 325° |
| 2026-05-08 17:25 | 38.67358 | -26.99872 | 2359 ft | 118 kts | 325° |
| 2026-05-08 17:25 | 38.67990 | -27.00537 | 2212 ft | 118 kts | 325° |
| 2026-05-08 17:26 | 38.68629 | -27.01204 | 2026 ft | 119 kts | 326° |
| 2026-05-08 17:26 | 38.69284 | -27.01866 | 1845 ft | 121 kts | 326° |
| 2026-05-08 17:26 | 38.69936 | -27.02530 | 1702 ft | 121 kts | 324° |
| 2026-05-08 17:26 | 38.70577 | -27.03214 | 1520 ft | 120 kts | 323° |
| 2026-05-08 17:27 | 38.71206 | -27.03914 | 1342 ft | 119 kts | 324° |
| 2026-05-08 17:27 | 38.71766 | -27.04510 | 1187 ft | 117 kts | 324° |
| 2026-05-08 17:27 | 38.72385 | -27.05163 | 1018 ft | 114 kts | 326° |
| 2026-05-08 17:27 | 38.73010 | -27.05799 | 813 ft | 116 kts | 324° |
| 2026-05-08 17:28 | 38.73638 | -27.06431 | 658 ft | 115 kts | 325° |
| 2026-05-08 17:28 | 38.74265 | -27.07083 | 508 ft | 115 kts | 322° |
| 2026-05-08 17:28 | 38.74890 | -27.07723 | 360 ft | 116 kts | 322° |
| 2026-05-08 17:28 | 38.75517 | -27.08377 | 214 ft | 116 kts | 322° |
| 2026-05-08 17:29 | 38.76089 | -27.08978 | 176 ft | 93 kts | 322° |
| 2026-05-08 17:29 | 38.76495 | -27.09402 | 171 ft | 57 kts | 321° |
| 2026-05-08 17:29 | 38.76726 | -27.09643 | 169 ft | 35 kts | 321° |